sensor_id;sensor_type;location;lat;lon;timestamp;temperature;humidity
70534;SHT31;58088;51.186;17.130;2023-12-20T00:00:17;8.84;74.22
70534;SHT31;58088;51.186;17.130;2023-12-20T00:02:45;8.87;74.20
70534;SHT31;58088;51.186;17.130;2023-12-20T00:05:13;8.85;74.12
70534;SHT31;58088;51.186;17.130;2023-12-20T00:07:40;8.86;74.03
70534;SHT31;58088;51.186;17.130;2023-12-20T00:10:06;8.85;74.11
70534;SHT31;58088;51.186;17.130;2023-12-20T00:12:33;8.86;74.14
70534;SHT31;58088;51.186;17.130;2023-12-20T00:14:59;8.86;74.10
70534;SHT31;58088;51.186;17.130;2023-12-20T00:17:25;8.86;74.17
70534;SHT31;58088;51.186;17.130;2023-12-20T00:19:51;8.83;74.12
70534;SHT31;58088;51.186;17.130;2023-12-20T00:22:17;8.83;74.17
70534;SHT31;58088;51.186;17.130;2023-12-20T00:24:43;8.82;74.22
70534;SHT31;58088;51.186;17.130;2023-12-20T00:27:09;8.81;74.34
70534;SHT31;58088;51.186;17.130;2023-12-20T00:29:35;8.81;74.40
70534;SHT31;58088;51.186;17.130;2023-12-20T00:32:01;8.83;74.40
70534;SHT31;58088;51.186;17.130;2023-12-20T00:34:27;8.85;74.38
70534;SHT31;58088;51.186;17.130;2023-12-20T00:36:53;8.85;74.34
70534;SHT31;58088;51.186;17.130;2023-12-20T00:39:20;8.81;74.39
70534;SHT31;58088;51.186;17.130;2023-12-20T00:41:46;8.81;74.46
70534;SHT31;58088;51.186;17.130;2023-12-20T00:44:12;8.84;74.49
70534;SHT31;58088;51.186;17.130;2023-12-20T00:46:39;8.81;74.53
70534;SHT31;58088;51.186;17.130;2023-12-20T00:49:05;8.80;74.65
70534;SHT31;58088;51.186;17.130;2023-12-20T00:51:31;8.79;74.82
70534;SHT31;58088;51.186;17.130;2023-12-20T00:53:57;8.80;74.86
70534;SHT31;58088;51.186;17.130;2023-12-20T00:56:23;8.79;74.80
70534;SHT31;58088;51.186;17.130;2023-12-20T00:58:49;8.76;74.87
70534;SHT31;58088;51.186;17.130;2023-12-20T01:01:15;8.77;74.95
70534;SHT31;58088;51.186;17.130;2023-12-20T01:03:41;8.77;75.06
70534;SHT31;58088;51.186;17.130;2023-12-20T01:06:07;8.81;75.04
70534;SHT31;58088;51.186;17.130;2023-12-20T01:08:34;8.80;75.12
70534;SHT31;58088;51.186;17.130;2023-12-20T01:11:00;8.80;75.30
70534;SHT31;58088;51.186;17.130;2023-12-20T01:13:31;8.78;75.45
70534;SHT31;58088;51.186;17.130;2023-12-20T01:15:58;8.79;75.37
70534;SHT31;58088;51.186;17.130;2023-12-20T01:18:24;8.79;75.43
70534;SHT31;58088;51.186;17.130;2023-12-20T01:20:51;8.79;75.51
70534;SHT31;58088;51.186;17.130;2023-12-20T01:23:17;8.80;75.53
70534;SHT31;58088;51.186;17.130;2023-12-20T01:25:43;8.79;75.48
70534;SHT31;58088;51.186;17.130;2023-12-20T01:28:11;8.79;75.44
70534;SHT31;58088;51.186;17.130;2023-12-20T01:30:38;8.78;75.54
70534;SHT31;58088;51.186;17.130;2023-12-20T01:33:05;8.77;75.59
70534;SHT31;58088;51.186;17.130;2023-12-20T01:35:32;8.75;75.63
70534;SHT31;58088;51.186;17.130;2023-12-20T01:37:58;8.76;75.81
70534;SHT31;58088;51.186;17.130;2023-12-20T01:40:24;8.76;75.83
70534;SHT31;58088;51.186;17.130;2023-12-20T01:42:59;8.75;75.82
70534;SHT31;58088;51.186;17.130;2023-12-20T01:45:44;8.74;75.85
70534;SHT31;58088;51.186;17.130;2023-12-20T01:48:10;8.73;75.87
70534;SHT31;58088;51.186;17.130;2023-12-20T01:50:36;8.74;75.77
70534;SHT31;58088;51.186;17.130;2023-12-20T01:53:04;8.75;75.73
70534;SHT31;58088;51.186;17.130;2023-12-20T01:55:35;8.73;75.77
70534;SHT31;58088;51.186;17.130;2023-12-20T01:58:08;8.71;75.88
70534;SHT31;58088;51.186;17.130;2023-12-20T02:00:36;8.71;75.99
70534;SHT31;58088;51.186;17.130;2023-12-20T02:03:03;8.70;76.01
70534;SHT31;58088;51.186;17.130;2023-12-20T02:05:30;8.71;76.09
70534;SHT31;58088;51.186;17.130;2023-12-20T02:07:58;8.73;76.04
70534;SHT31;58088;51.186;17.130;2023-12-20T02:10:24;8.72;76.06
70534;SHT31;58088;51.186;17.130;2023-12-20T02:12:51;8.74;76.11
70534;SHT31;58088;51.186;17.130;2023-12-20T02:15:18;8.73;76.06
70534;SHT31;58088;51.186;17.130;2023-12-20T02:17:45;8.72;76.11
70534;SHT31;58088;51.186;17.130;2023-12-20T02:20:14;8.72;76.16
70534;SHT31;58088;51.186;17.130;2023-12-20T02:22:40;8.70;76.19
70534;SHT31;58088;51.186;17.130;2023-12-20T02:25:06;8.68;76.22
70534;SHT31;58088;51.186;17.130;2023-12-20T02:27:33;8.69;76.20
70534;SHT31;58088;51.186;17.130;2023-12-20T02:30:01;8.64;76.10
70534;SHT31;58088;51.186;17.130;2023-12-20T02:32:27;8.60;75.94
70534;SHT31;58088;51.186;17.130;2023-12-20T02:34:54;8.57;75.82
70534;SHT31;58088;51.186;17.130;2023-12-20T02:37:20;8.53;75.76
70534;SHT31;58088;51.186;17.130;2023-12-20T02:39:47;8.52;75.73
70534;SHT31;58088;51.186;17.130;2023-12-20T02:42:13;8.47;75.74
70534;SHT31;58088;51.186;17.130;2023-12-20T02:44:39;8.45;75.79
70534;SHT31;58088;51.186;17.130;2023-12-20T02:47:05;8.43;75.73
70534;SHT31;58088;51.186;17.130;2023-12-20T02:49:31;8.39;75.75
70534;SHT31;58088;51.186;17.130;2023-12-20T02:51:57;8.35;75.78
70534;SHT31;58088;51.186;17.130;2023-12-20T02:54:23;8.34;75.79
70534;SHT31;58088;51.186;17.130;2023-12-20T02:56:49;8.34;75.83
70534;SHT31;58088;51.186;17.130;2023-12-20T02:59:15;8.32;75.82
70534;SHT31;58088;51.186;17.130;2023-12-20T03:05:02;8.26;75.88
70534;SHT31;58088;51.186;17.130;2023-12-20T03:07:29;8.23;75.85
70534;SHT31;58088;51.186;17.130;2023-12-20T03:09:55;8.22;75.89
70534;SHT31;58088;51.186;17.130;2023-12-20T03:12:21;8.20;75.92
70534;SHT31;58088;51.186;17.130;2023-12-20T03:14:48;8.19;75.97
70534;SHT31;58088;51.186;17.130;2023-12-20T03:17:14;8.16;75.89
70534;SHT31;58088;51.186;17.130;2023-12-20T03:19:41;8.13;75.99
70534;SHT31;58088;51.186;17.130;2023-12-20T03:22:07;8.09;76.01
70534;SHT31;58088;51.186;17.130;2023-12-20T03:24:33;8.06;76.09
70534;SHT31;58088;51.186;17.130;2023-12-20T03:26:59;8.06;76.14
70534;SHT31;58088;51.186;17.130;2023-12-20T03:29:28;8.03;76.09
70534;SHT31;58088;51.186;17.130;2023-12-20T03:31:53;8.01;76.18
70534;SHT31;58088;51.186;17.130;2023-12-20T03:34:19;8.02;76.27
70534;SHT31;58088;51.186;17.130;2023-12-20T03:36:45;8.01;76.22
70534;SHT31;58088;51.186;17.130;2023-12-20T03:39:13;8.01;76.23
70534;SHT31;58088;51.186;17.130;2023-12-20T03:41:39;7.99;76.28
70534;SHT31;58088;51.186;17.130;2023-12-20T03:44:05;7.98;76.40
70534;SHT31;58088;51.186;17.130;2023-12-20T03:46:31;7.99;76.36
70534;SHT31;58088;51.186;17.130;2023-12-20T03:48:57;7.97;76.38
70534;SHT31;58088;51.186;17.130;2023-12-20T03:51:23;7.94;76.40
70534;SHT31;58088;51.186;17.130;2023-12-20T03:53:49;7.95;76.41
70534;SHT31;58088;51.186;17.130;2023-12-20T03:56:15;7.95;76.41
70534;SHT31;58088;51.186;17.130;2023-12-20T03:58:41;7.94;76.39
70534;SHT31;58088;51.186;17.130;2023-12-20T04:01:11;7.93;76.34
70534;SHT31;58088;51.186;17.130;2023-12-20T04:03:39;7.90;76.41
70534;SHT31;58088;51.186;17.130;2023-12-20T04:06:06;7.88;76.44
70534;SHT31;58088;51.186;17.130;2023-12-20T04:08:34;7.86;76.46
70534;SHT31;58088;51.186;17.130;2023-12-20T04:11:00;7.85;76.46
70534;SHT31;58088;51.186;17.130;2023-12-20T04:13:26;7.83;76.47
70534;SHT31;58088;51.186;17.130;2023-12-20T04:15:53;7.81;76.48
70534;SHT31;58088;51.186;17.130;2023-12-20T04:18:19;7.79;76.49
70534;SHT31;58088;51.186;17.130;2023-12-20T04:20:45;7.79;76.51
70534;SHT31;58088;51.186;17.130;2023-12-20T04:23:11;7.79;76.51
70534;SHT31;58088;51.186;17.130;2023-12-20T04:25:37;7.75;76.50
70534;SHT31;58088;51.186;17.130;2023-12-20T04:28:04;7.74;76.59
70534;SHT31;58088;51.186;17.130;2023-12-20T04:30:30;7.74;76.57
70534;SHT31;58088;51.186;17.130;2023-12-20T04:32:56;7.75;76.60
70534;SHT31;58088;51.186;17.130;2023-12-20T04:35:22;7.74;76.65
70534;SHT31;58088;51.186;17.130;2023-12-20T04:37:48;7.72;76.65
70534;SHT31;58088;51.186;17.130;2023-12-20T04:40:15;7.71;76.75
70534;SHT31;58088;51.186;17.130;2023-12-20T04:42:41;7.69;76.78
70534;SHT31;58088;51.186;17.130;2023-12-20T04:45:07;7.67;76.80
70534;SHT31;58088;51.186;17.130;2023-12-20T04:47:33;7.64;76.87
70534;SHT31;58088;51.186;17.130;2023-12-20T04:49:59;7.64;76.90
70534;SHT31;58088;51.186;17.130;2023-12-20T04:52:26;7.63;76.83
70534;SHT31;58088;51.186;17.130;2023-12-20T04:54:52;7.59;76.83
70534;SHT31;58088;51.186;17.130;2023-12-20T04:57:18;7.57;76.95
70534;SHT31;58088;51.186;17.130;2023-12-20T04:59:44;7.58;76.99
70534;SHT31;58088;51.186;17.130;2023-12-20T05:02:11;7.57;76.94
70534;SHT31;58088;51.186;17.130;2023-12-20T05:04:37;7.57;76.93
70534;SHT31;58088;51.186;17.130;2023-12-20T05:07:03;7.54;76.91
70534;SHT31;58088;51.186;17.130;2023-12-20T05:09:30;7.54;76.91
70534;SHT31;58088;51.186;17.130;2023-12-20T05:11:57;7.52;76.93
70534;SHT31;58088;51.186;17.130;2023-12-20T05:14:23;7.51;77.02
70534;SHT31;58088;51.186;17.130;2023-12-20T05:16:50;7.51;77.03
70534;SHT31;58088;51.186;17.130;2023-12-20T05:19:16;7.52;77.06
70534;SHT31;58088;51.186;17.130;2023-12-20T05:21:43;7.54;77.11
70534;SHT31;58088;51.186;17.130;2023-12-20T05:24:09;7.55;77.05
70534;SHT31;58088;51.186;17.130;2023-12-20T05:26:35;7.54;77.07
70534;SHT31;58088;51.186;17.130;2023-12-20T05:29:01;7.56;77.11
70534;SHT31;58088;51.186;17.130;2023-12-20T05:31:27;7.56;77.10
70534;SHT31;58088;51.186;17.130;2023-12-20T05:33:54;7.55;77.18
70534;SHT31;58088;51.186;17.130;2023-12-20T05:36:20;7.57;77.24
70534;SHT31;58088;51.186;17.130;2023-12-20T05:38:46;7.58;77.21
70534;SHT31;58088;51.186;17.130;2023-12-20T05:41:12;7.57;77.21
70534;SHT31;58088;51.186;17.130;2023-12-20T05:43:39;7.54;77.26
70534;SHT31;58088;51.186;17.130;2023-12-20T05:46:05;7.52;77.37
70534;SHT31;58088;51.186;17.130;2023-12-20T05:48:31;7.50;77.46
70534;SHT31;58088;51.186;17.130;2023-12-20T05:50:57;7.51;77.47
70534;SHT31;58088;51.186;17.130;2023-12-20T05:53:23;7.53;77.50
70534;SHT31;58088;51.186;17.130;2023-12-20T05:55:50;7.51;77.46
70534;SHT31;58088;51.186;17.130;2023-12-20T05:58:16;7.50;77.46
70534;SHT31;58088;51.186;17.130;2023-12-20T06:00:42;7.49;77.48
70534;SHT31;58088;51.186;17.130;2023-12-20T06:03:08;7.48;77.58
70534;SHT31;58088;51.186;17.130;2023-12-20T06:05:34;7.50;77.60
70534;SHT31;58088;51.186;17.130;2023-12-20T06:08:00;7.52;77.58
70534;SHT31;58088;51.186;17.130;2023-12-20T06:10:28;7.50;77.61
70534;SHT31;58088;51.186;17.130;2023-12-20T06:12:55;7.52;77.62
70534;SHT31;58088;51.186;17.130;2023-12-20T06:15:22;7.53;77.58
70534;SHT31;58088;51.186;17.130;2023-12-20T06:17:48;7.52;77.60
70534;SHT31;58088;51.186;17.130;2023-12-20T06:20:15;7.53;77.62
70534;SHT31;58088;51.186;17.130;2023-12-20T06:22:41;7.53;77.62
70534;SHT31;58088;51.186;17.130;2023-12-20T06:25:08;7.52;77.57
70534;SHT31;58088;51.186;17.130;2023-12-20T06:27:34;7.50;77.62
70534;SHT31;58088;51.186;17.130;2023-12-20T06:30:00;7.51;77.64
70534;SHT31;58088;51.186;17.130;2023-12-20T06:32:27;7.51;77.64
70534;SHT31;58088;51.186;17.130;2023-12-20T06:34:54;7.50;77.67
70534;SHT31;58088;51.186;17.130;2023-12-20T06:37:21;7.48;77.68
70534;SHT31;58088;51.186;17.130;2023-12-20T06:39:47;7.45;77.72
70534;SHT31;58088;51.186;17.130;2023-12-20T06:42:13;7.48;77.79
70534;SHT31;58088;51.186;17.130;2023-12-20T06:44:39;7.47;77.79
70534;SHT31;58088;51.186;17.130;2023-12-20T06:47:05;7.51;77.85
70534;SHT31;58088;51.186;17.130;2023-12-20T06:49:32;7.52;77.80
70534;SHT31;58088;51.186;17.130;2023-12-20T06:51:58;7.49;77.71
70534;SHT31;58088;51.186;17.130;2023-12-20T06:54:25;7.48;77.71
70534;SHT31;58088;51.186;17.130;2023-12-20T06:56:51;7.45;77.73
70534;SHT31;58088;51.186;17.130;2023-12-20T06:59:17;7.45;77.78
70534;SHT31;58088;51.186;17.130;2023-12-20T07:01:47;7.44;77.80
70534;SHT31;58088;51.186;17.130;2023-12-20T07:04:15;7.44;77.78
70534;SHT31;58088;51.186;17.130;2023-12-20T07:06:45;7.45;77.80
70534;SHT31;58088;51.186;17.130;2023-12-20T07:09:12;7.45;77.81
70534;SHT31;58088;51.186;17.130;2023-12-20T07:11:39;7.44;77.82
70534;SHT31;58088;51.186;17.130;2023-12-20T07:14:05;7.45;77.79
70534;SHT31;58088;51.186;17.130;2023-12-20T07:16:32;7.43;77.73
70534;SHT31;58088;51.186;17.130;2023-12-20T07:18:58;7.42;77.80
70534;SHT31;58088;51.186;17.130;2023-12-20T07:21:24;7.40;77.81
70534;SHT31;58088;51.186;17.130;2023-12-20T07:23:50;7.42;77.80
70534;SHT31;58088;51.186;17.130;2023-12-20T07:26:16;7.40;77.81
70534;SHT31;58088;51.186;17.130;2023-12-20T07:28:43;7.38;77.80
70534;SHT31;58088;51.186;17.130;2023-12-20T07:31:09;7.38;77.74
70534;SHT31;58088;51.186;17.130;2023-12-20T07:33:35;7.39;77.71
70534;SHT31;58088;51.186;17.130;2023-12-20T07:36:01;7.35;77.71
70534;SHT31;58088;51.186;17.130;2023-12-20T07:38:27;7.32;77.80
70534;SHT31;58088;51.186;17.130;2023-12-20T07:40:53;7.30;77.78
70534;SHT31;58088;51.186;17.130;2023-12-20T07:43:19;7.30;77.80
70534;SHT31;58088;51.186;17.130;2023-12-20T07:45:46;7.33;77.83
70534;SHT31;58088;51.186;17.130;2023-12-20T07:48:12;7.34;77.82
70534;SHT31;58088;51.186;17.130;2023-12-20T07:50:38;7.34;77.82
70534;SHT31;58088;51.186;17.130;2023-12-20T07:53:04;7.33;77.80
70534;SHT31;58088;51.186;17.130;2023-12-20T07:55:30;7.33;77.81
70534;SHT31;58088;51.186;17.130;2023-12-20T07:57:57;7.36;77.88
70534;SHT31;58088;51.186;17.130;2023-12-20T08:00:23;7.34;77.80
70534;SHT31;58088;51.186;17.130;2023-12-20T08:02:49;7.34;77.77
70534;SHT31;58088;51.186;17.130;2023-12-20T08:05:15;7.30;77.76
70534;SHT31;58088;51.186;17.130;2023-12-20T08:07:42;7.27;77.82
70534;SHT31;58088;51.186;17.130;2023-12-20T08:10:08;7.25;77.89
70534;SHT31;58088;51.186;17.130;2023-12-20T08:12:34;7.26;77.89
70534;SHT31;58088;51.186;17.130;2023-12-20T08:15:01;7.26;77.78
70534;SHT31;58088;51.186;17.130;2023-12-20T08:17:29;7.29;77.85
70534;SHT31;58088;51.186;17.130;2023-12-20T08:19:55;7.32;77.87
70534;SHT31;58088;51.186;17.130;2023-12-20T08:22:21;7.32;77.82
70534;SHT31;58088;51.186;17.130;2023-12-20T08:24:47;7.32;77.87
70534;SHT31;58088;51.186;17.130;2023-12-20T08:27:13;7.33;77.88
70534;SHT31;58088;51.186;17.130;2023-12-20T08:29:40;7.35;77.81
70534;SHT31;58088;51.186;17.130;2023-12-20T08:32:06;7.36;77.84
70534;SHT31;58088;51.186;17.130;2023-12-20T08:34:32;7.37;77.80
70534;SHT31;58088;51.186;17.130;2023-12-20T08:36:59;7.36;77.69
70534;SHT31;58088;51.186;17.130;2023-12-20T08:39:25;7.36;77.71
70534;SHT31;58088;51.186;17.130;2023-12-20T08:41:51;7.33;77.66
70534;SHT31;58088;51.186;17.130;2023-12-20T08:44:17;7.32;77.70
70534;SHT31;58088;51.186;17.130;2023-12-20T08:46:43;7.33;77.77
70534;SHT31;58088;51.186;17.130;2023-12-20T08:49:10;7.33;77.78
70534;SHT31;58088;51.186;17.130;2023-12-20T08:51:36;7.30;77.78
70534;SHT31;58088;51.186;17.130;2023-12-20T08:54:05;7.30;77.83
70534;SHT31;58088;51.186;17.130;2023-12-20T08:56:33;7.32;77.89
70534;SHT31;58088;51.186;17.130;2023-12-20T08:59:00;7.31;77.88
70534;SHT31;58088;51.186;17.130;2023-12-20T09:01:26;7.30;77.87
70534;SHT31;58088;51.186;17.130;2023-12-20T09:03:52;7.30;77.92
70534;SHT31;58088;51.186;17.130;2023-12-20T09:06:18;7.35;77.91
70534;SHT31;58088;51.186;17.130;2023-12-20T09:08:44;7.38;77.96
70534;SHT31;58088;51.186;17.130;2023-12-20T09:11:10;7.41;77.90
70534;SHT31;58088;51.186;17.130;2023-12-20T09:13:36;7.43;77.91
70534;SHT31;58088;51.186;17.130;2023-12-20T09:16:02;7.42;77.86
70534;SHT31;58088;51.186;17.130;2023-12-20T09:18:29;7.43;77.84
70534;SHT31;58088;51.186;17.130;2023-12-20T09:20:55;7.43;77.81
70534;SHT31;58088;51.186;17.130;2023-12-20T09:23:21;7.41;77.80
70534;SHT31;58088;51.186;17.130;2023-12-20T09:25:48;7.42;77.87
70534;SHT31;58088;51.186;17.130;2023-12-20T09:28:14;7.45;77.82
70534;SHT31;58088;51.186;17.130;2023-12-20T09:30:40;7.48;77.82
70534;SHT31;58088;51.186;17.130;2023-12-20T09:33:06;7.50;77.77
70534;SHT31;58088;51.186;17.130;2023-12-20T09:35:33;7.49;77.72
70534;SHT31;58088;51.186;17.130;2023-12-20T09:37:59;7.54;77.79
70534;SHT31;58088;51.186;17.130;2023-12-20T09:40:26;7.58;77.73
70534;SHT31;58088;51.186;17.130;2023-12-20T09:42:56;7.61;77.69
70534;SHT31;58088;51.186;17.130;2023-12-20T09:45:24;7.65;77.72
70534;SHT31;58088;51.186;17.130;2023-12-20T09:47:54;7.70;77.70
70534;SHT31;58088;51.186;17.130;2023-12-20T09:50:20;7.75;77.77
70534;SHT31;58088;51.186;17.130;2023-12-20T09:52:49;7.80;77.65
70534;SHT31;58088;51.186;17.130;2023-12-20T09:55:18;7.78;77.49
70534;SHT31;58088;51.186;17.130;2023-12-20T09:57:46;7.80;77.43
70534;SHT31;58088;51.186;17.130;2023-12-20T10:00:13;7.83;77.37
70534;SHT31;58088;51.186;17.130;2023-12-20T10:02:50;7.79;77.29
70534;SHT31;58088;51.186;17.130;2023-12-20T10:05:26;7.78;77.26
70534;SHT31;58088;51.186;17.130;2023-12-20T10:07:54;7.77;77.16
70534;SHT31;58088;51.186;17.130;2023-12-20T10:10:21;7.78;77.20
70534;SHT31;58088;51.186;17.130;2023-12-20T10:15:47;7.80;77.05
70534;SHT31;58088;51.186;17.130;2023-12-20T10:18:15;7.78;76.96
70534;SHT31;58088;51.186;17.130;2023-12-20T10:20:42;7.72;76.87
70534;SHT31;58088;51.186;17.130;2023-12-20T10:23:08;7.69;76.83
70534;SHT31;58088;51.186;17.130;2023-12-20T10:25:35;7.68;76.80
70534;SHT31;58088;51.186;17.130;2023-12-20T10:28:09;7.67;76.70
70534;SHT31;58088;51.186;17.130;2023-12-20T10:30:48;7.66;76.64
70534;SHT31;58088;51.186;17.130;2023-12-20T10:33:23;7.66;76.48
70534;SHT31;58088;51.186;17.130;2023-12-20T10:35:55;7.68;76.13
70534;SHT31;58088;51.186;17.130;2023-12-20T10:38:21;7.78;76.10
70534;SHT31;58088;51.186;17.130;2023-12-20T10:40:49;7.89;75.96
70534;SHT31;58088;51.186;17.130;2023-12-20T10:43:24;7.97;75.75
70534;SHT31;58088;51.186;17.130;2023-12-20T10:45:52;7.97;75.51
70534;SHT31;58088;51.186;17.130;2023-12-20T10:48:18;8.00;75.25
70534;SHT31;58088;51.186;17.130;2023-12-20T10:50:46;8.03;75.24
70534;SHT31;58088;51.186;17.130;2023-12-20T10:53:13;8.12;75.14
70534;SHT31;58088;51.186;17.130;2023-12-20T10:55:40;8.15;75.02
70534;SHT31;58088;51.186;17.130;2023-12-20T10:58:09;8.19;74.80
70534;SHT31;58088;51.186;17.130;2023-12-20T11:00:39;8.34;74.57
70534;SHT31;58088;51.186;17.130;2023-12-20T11:03:07;8.50;74.02
70534;SHT31;58088;51.186;17.130;2023-12-20T11:05:40;8.57;73.84
70534;SHT31;58088;51.186;17.130;2023-12-20T11:08:32;8.59;73.45
70534;SHT31;58088;51.186;17.130;2023-12-20T11:11:13;8.55;72.72
70534;SHT31;58088;51.186;17.130;2023-12-20T11:13:54;8.50;72.46
70534;SHT31;58088;51.186;17.130;2023-12-20T11:16:27;8.49;72.06
70534;SHT31;58088;51.186;17.130;2023-12-20T11:18:53;8.46;71.97
70534;SHT31;58088;51.186;17.130;2023-12-20T11:21:19;8.51;72.03
70534;SHT31;58088;51.186;17.130;2023-12-20T11:23:46;8.57;72.03
70534;SHT31;58088;51.186;17.130;2023-12-20T11:26:15;8.59;71.90
70534;SHT31;58088;51.186;17.130;2023-12-20T11:28:43;8.61;71.86
70534;SHT31;58088;51.186;17.130;2023-12-20T11:31:09;8.71;71.99
70534;SHT31;58088;51.186;17.130;2023-12-20T11:33:41;8.80;72.12
70534;SHT31;58088;51.186;17.130;2023-12-20T11:36:12;8.83;71.97
70534;SHT31;58088;51.186;17.130;2023-12-20T11:39:17;8.85;71.84
70534;SHT31;58088;51.186;17.130;2023-12-20T11:41:36;8.85;71.63
70534;SHT31;58088;51.186;17.130;2023-12-20T11:44:04;8.90;71.52
70534;SHT31;58088;51.186;17.130;2023-12-20T11:46:31;8.89;71.29
70534;SHT31;58088;51.186;17.130;2023-12-20T11:48:57;8.89;70.96
70534;SHT31;58088;51.186;17.130;2023-12-20T11:51:23;8.96;71.00
70534;SHT31;58088;51.186;17.130;2023-12-20T11:53:52;8.98;70.76
70534;SHT31;58088;51.186;17.130;2023-12-20T11:56:21;8.95;70.47
70534;SHT31;58088;51.186;17.130;2023-12-20T11:58:47;8.94;70.39
70534;SHT31;58088;51.186;17.130;2023-12-20T12:01:17;8.92;70.41
70534;SHT31;58088;51.186;17.130;2023-12-20T12:03:46;8.96;70.50
70534;SHT31;58088;51.186;17.130;2023-12-20T12:06:12;9.00;70.20
70534;SHT31;58088;51.186;17.130;2023-12-20T12:08:39;8.99;70.00
70534;SHT31;58088;51.186;17.130;2023-12-20T12:11:05;8.98;69.91
70534;SHT31;58088;51.186;17.130;2023-12-20T12:13:31;8.97;69.72
70534;SHT31;58088;51.186;17.130;2023-12-20T12:15:58;8.95;69.59
70534;SHT31;58088;51.186;17.130;2023-12-20T12:18:24;8.93;69.63
70534;SHT31;58088;51.186;17.130;2023-12-20T12:20:59;8.92;69.68
70534;SHT31;58088;51.186;17.130;2023-12-20T12:23:27;8.85;69.32
70534;SHT31;58088;51.186;17.130;2023-12-20T12:25:53;8.81;69.14
70534;SHT31;58088;51.186;17.130;2023-12-20T12:28:20;8.79;69.08
70534;SHT31;58088;51.186;17.130;2023-12-20T12:30:56;8.77;69.00
70534;SHT31;58088;51.186;17.130;2023-12-20T12:33:25;8.76;69.00
70534;SHT31;58088;51.186;17.130;2023-12-20T12:35:52;8.78;69.07
70534;SHT31;58088;51.186;17.130;2023-12-20T12:38:22;8.78;69.00
70534;SHT31;58088;51.186;17.130;2023-12-20T12:40:49;8.78;68.71
70534;SHT31;58088;51.186;17.130;2023-12-20T12:43:18;8.76;68.33
70534;SHT31;58088;51.186;17.130;2023-12-20T12:45:45;8.76;68.37
70534;SHT31;58088;51.186;17.130;2023-12-20T12:48:11;8.78;68.54
70534;SHT31;58088;51.186;17.130;2023-12-20T12:50:37;8.78;68.46
70534;SHT31;58088;51.186;17.130;2023-12-20T12:53:03;8.78;68.49
70534;SHT31;58088;51.186;17.130;2023-12-20T12:55:29;8.74;68.60
70534;SHT31;58088;51.186;17.130;2023-12-20T12:57:55;8.72;68.66
70534;SHT31;58088;51.186;17.130;2023-12-20T13:00:22;8.73;68.69
70534;SHT31;58088;51.186;17.130;2023-12-20T13:02:48;8.72;68.70
70534;SHT31;58088;51.186;17.130;2023-12-20T13:05:14;8.65;68.87
70534;SHT31;58088;51.186;17.130;2023-12-20T13:07:40;8.57;69.22
70534;SHT31;58088;51.186;17.130;2023-12-20T13:10:06;8.51;69.59
70534;SHT31;58088;51.186;17.130;2023-12-20T13:12:33;8.51;69.88
70534;SHT31;58088;51.186;17.130;2023-12-20T13:14:59;8.55;70.04
70534;SHT31;58088;51.186;17.130;2023-12-20T13:17:25;8.56;70.02
70534;SHT31;58088;51.186;17.130;2023-12-20T13:19:51;8.55;69.90
70534;SHT31;58088;51.186;17.130;2023-12-20T13:22:17;8.57;69.85
70534;SHT31;58088;51.186;17.130;2023-12-20T13:24:44;8.55;69.61
70534;SHT31;58088;51.186;17.130;2023-12-20T13:27:10;8.55;69.59
70534;SHT31;58088;51.186;17.130;2023-12-20T13:29:36;8.53;69.60
70534;SHT31;58088;51.186;17.130;2023-12-20T13:32:02;8.55;69.52
70534;SHT31;58088;51.186;17.130;2023-12-20T13:34:29;8.53;69.26
70534;SHT31;58088;51.186;17.130;2023-12-20T13:36:55;8.55;69.09
70534;SHT31;58088;51.186;17.130;2023-12-20T13:39:22;8.55;68.87
70534;SHT31;58088;51.186;17.130;2023-12-20T13:41:48;8.56;68.74
70534;SHT31;58088;51.186;17.130;2023-12-20T13:44:14;8.58;68.56
70534;SHT31;58088;51.186;17.130;2023-12-20T13:46:40;8.57;68.36
70534;SHT31;58088;51.186;17.130;2023-12-20T13:49:07;8.54;68.16
70534;SHT31;58088;51.186;17.130;2023-12-20T13:51:33;8.52;68.01
70534;SHT31;58088;51.186;17.130;2023-12-20T13:54:00;8.52;67.97
70534;SHT31;58088;51.186;17.130;2023-12-20T13:56:26;8.51;67.81
70534;SHT31;58088;51.186;17.130;2023-12-20T13:58:52;8.52;67.75
70534;SHT31;58088;51.186;17.130;2023-12-20T14:01:18;8.51;67.56
70534;SHT31;58088;51.186;17.130;2023-12-20T14:03:44;8.52;67.48
70534;SHT31;58088;51.186;17.130;2023-12-20T14:06:11;8.52;67.43
70534;SHT31;58088;51.186;17.130;2023-12-20T14:08:37;8.55;67.37
70534;SHT31;58088;51.186;17.130;2023-12-20T14:11:03;8.55;67.30
70534;SHT31;58088;51.186;17.130;2023-12-20T14:13:29;8.54;67.14
70534;SHT31;58088;51.186;17.130;2023-12-20T14:15:55;8.57;67.10
70534;SHT31;58088;51.186;17.130;2023-12-20T14:18:21;8.57;67.11
70534;SHT31;58088;51.186;17.130;2023-12-20T14:20:47;8.55;67.13
70534;SHT31;58088;51.186;17.130;2023-12-20T14:23:15;8.56;67.10
70534;SHT31;58088;51.186;17.130;2023-12-20T14:25:42;8.57;67.10
70534;SHT31;58088;51.186;17.130;2023-12-20T14:28:08;8.58;67.04
70534;SHT31;58088;51.186;17.130;2023-12-20T14:30:35;8.55;66.86
70534;SHT31;58088;51.186;17.130;2023-12-20T14:33:03;8.52;66.56
70534;SHT31;58088;51.186;17.130;2023-12-20T14:35:30;8.53;66.49
70534;SHT31;58088;51.186;17.130;2023-12-20T14:37:56;8.55;66.43
70534;SHT31;58088;51.186;17.130;2023-12-20T14:40:22;8.57;66.40
70534;SHT31;58088;51.186;17.130;2023-12-20T14:42:49;8.54;66.23
70534;SHT31;58088;51.186;17.130;2023-12-20T14:45:16;8.52;66.09
70534;SHT31;58088;51.186;17.130;2023-12-20T14:47:43;8.57;66.27
70534;SHT31;58088;51.186;17.130;2023-12-20T14:50:09;8.59;66.24
70534;SHT31;58088;51.186;17.130;2023-12-20T14:52:37;8.61;66.31
70534;SHT31;58088;51.186;17.130;2023-12-20T14:55:04;8.60;66.29
70534;SHT31;58088;51.186;17.130;2023-12-20T14:57:30;8.59;66.17
70534;SHT31;58088;51.186;17.130;2023-12-20T14:59:57;8.59;66.09
70534;SHT31;58088;51.186;17.130;2023-12-20T15:02:23;8.59;66.02
70534;SHT31;58088;51.186;17.130;2023-12-20T15:04:49;8.59;65.98
70534;SHT31;58088;51.186;17.130;2023-12-20T15:07:16;8.60;65.91
70534;SHT31;58088;51.186;17.130;2023-12-20T15:09:43;8.58;65.79
70534;SHT31;58088;51.186;17.130;2023-12-20T15:12:12;8.56;65.75
70534;SHT31;58088;51.186;17.130;2023-12-20T15:14:38;8.53;65.71
70534;SHT31;58088;51.186;17.130;2023-12-20T15:17:04;8.48;65.61
70534;SHT31;58088;51.186;17.130;2023-12-20T15:19:31;8.45;65.50
70534;SHT31;58088;51.186;17.130;2023-12-20T15:21:57;8.46;65.29
70534;SHT31;58088;51.186;17.130;2023-12-20T15:24:25;8.43;65.15
70534;SHT31;58088;51.186;17.130;2023-12-20T15:26:54;8.43;65.06
70534;SHT31;58088;51.186;17.130;2023-12-20T15:29:21;8.43;65.05
70534;SHT31;58088;51.186;17.130;2023-12-20T15:31:47;8.42;64.92
70534;SHT31;58088;51.186;17.130;2023-12-20T15:34:14;8.41;64.84